createdAt,value
2023-05-10T00:02:10.690Z,98314.34
2023-05-10T00:04:38.947Z,98312.30
2023-05-10T00:07:06.927Z,98307.86
2023-05-10T00:09:34.996Z,98301.09
2023-05-10T00:12:03.072Z,98298.98
2023-05-10T00:14:31.457Z,98296.86
2023-05-10T00:16:59.712Z,98295.12
2023-05-10T00:19:27.875Z,98293.86
2023-05-10T00:21:56.613Z,98289.52
2023-05-10T00:24:24.600Z,98291.04
2023-05-10T00:26:52.590Z,98290.73
2023-05-10T00:29:20.777Z,98289.05
2023-05-10T00:31:49.457Z,98281.95
2023-05-10T00:34:17.564Z,98282.90
2023-05-10T00:36:46.580Z,98285.59
2023-05-10T00:39:14.642Z,98288.07
2023-05-10T00:41:42.706Z,98289.69
2023-05-10T00:44:10.856Z,98290.11
2023-05-10T00:46:39.149Z,98292.25
2023-05-10T00:49:07.744Z,98292.91
2023-05-10T00:51:36.319Z,98292.85
2023-05-10T00:54:04.511Z,98295.04
2023-05-10T00:56:32.768Z,98296.02
2023-05-10T00:59:01.028Z,98295.77
2023-05-10T01:01:30.028Z,98296.32
2023-05-10T01:03:59.243Z,98295.63
2023-05-10T01:06:27.288Z,98296.27
2023-05-10T01:08:55.897Z,98295.03
2023-05-10T01:11:23.879Z,98296.35
2023-05-10T01:13:57.656Z,98293.69
2023-05-10T01:16:27.480Z,98290.98
2023-05-10T01:18:56.480Z,98286.80
2023-05-10T01:21:28.826Z,98285.22
2023-05-10T01:24:16.075Z,98284.04
2023-05-10T01:27:02.738Z,98281.77
2023-05-10T01:29:33.929Z,98280.27
2023-05-10T01:32:24.353Z,98277.56
2023-05-10T01:35:07.543Z,98274.05
2023-05-10T01:37:46.030Z,98273.02
2023-05-10T01:40:48.253Z,98273.68
2023-05-10T01:43:29.490Z,98279.64
2023-05-10T01:46:21.747Z,98282.20
2023-05-10T01:48:55.162Z,98274.84
2023-05-10T01:51:27.064Z,98272.90
2023-05-10T01:54:01.648Z,98271.66
2023-05-10T01:56:33.399Z,98267.83
2023-05-10T01:59:07.172Z,98264.19
2023-05-10T02:01:37.531Z,98265.55
2023-05-10T02:04:07.766Z,98263.61
2023-05-10T02:06:37.466Z,98268.06
2023-05-10T02:09:07.794Z,98266.64
2023-05-10T02:11:38.949Z,98264.52
2023-05-10T02:14:10.682Z,98262.67
2023-05-10T02:16:40.599Z,98259.92
2023-05-10T02:19:11.841Z,98262.59
2023-05-10T02:21:41.411Z,98263.52
2023-05-10T02:24:11.781Z,98265.61
2023-05-10T02:26:40.872Z,98264.86
2023-05-10T02:29:10.993Z,98265.23
2023-05-10T02:31:40.146Z,98262.89
2023-05-10T02:34:10.059Z,98262.45
2023-05-10T02:36:40.644Z,98260.48
2023-05-10T02:39:13.932Z,98263.66
2023-05-10T02:41:44.560Z,98259.80
2023-05-10T02:44:15.636Z,98259.39
2023-05-10T02:46:44.374Z,98257.20
2023-05-10T02:49:12.781Z,98257.92
2023-05-10T02:51:50.301Z,98256.48
2023-05-10T02:54:26.613Z,98256.07
2023-05-10T02:57:03.947Z,98255.45
2023-05-10T02:59:33.739Z,98260.88
2023-05-10T03:02:03.313Z,98259.72
2023-05-10T03:04:31.640Z,98259.06
2023-05-10T03:07:00.240Z,98258.50
2023-05-10T03:09:28.585Z,98257.15
2023-05-10T03:12:06.688Z,98257.21
2023-05-10T03:14:40.902Z,98255.02
2023-05-10T03:17:23.307Z,98254.33
2023-05-10T03:19:56.689Z,98253.85
2023-05-10T03:22:31.761Z,98251.65
2023-05-10T03:25:06.793Z,98251.34
2023-05-10T03:27:37.920Z,98251.20
2023-05-10T03:30:09.367Z,98252.39
2023-05-10T03:32:38.296Z,98259.09
2023-05-10T03:35:10.190Z,98251.31
2023-05-10T03:37:38.407Z,98251.07
2023-05-10T03:40:08.015Z,98250.95
2023-05-10T03:42:37.537Z,98253.27
2023-05-10T03:45:06.120Z,98254.52
2023-05-10T03:47:34.172Z,98253.15
2023-05-10T03:50:02.890Z,98250.94
2023-05-10T03:52:31.132Z,98250.15
2023-05-10T03:54:59.315Z,98252.01
2023-05-10T03:57:27.277Z,98248.28
2023-05-10T03:59:55.537Z,98246.41
2023-05-10T04:02:25.157Z,98245.23
2023-05-10T04:04:53.558Z,98245.79
2023-05-10T04:07:21.850Z,98246.25
2023-05-10T04:09:49.804Z,98244.69
2023-05-10T04:12:17.972Z,98245.73
2023-05-10T04:14:46.250Z,98247.29
2023-05-10T04:17:14.351Z,98245.52
2023-05-10T04:19:42.458Z,98249.43
2023-05-10T04:22:10.317Z,98248.36
2023-05-10T04:24:38.298Z,98248.34
2023-05-10T04:27:06.281Z,98246.63
2023-05-10T04:29:34.255Z,98242.41
2023-05-10T04:32:02.330Z,98243.90
2023-05-10T04:34:30.402Z,98241.19
2023-05-10T04:36:58.476Z,98240.90
2023-05-10T04:39:26.546Z,98242.15
2023-05-10T04:41:54.631Z,98240.29
2023-05-10T04:44:22.545Z,98237.92
2023-05-10T04:46:50.603Z,98238.29
2023-05-10T04:49:19.137Z,98240.00
2023-05-10T04:51:47.617Z,98243.63
2023-05-10T04:54:15.962Z,98243.09
2023-05-10T04:56:43.969Z,98239.27
2023-05-10T04:59:11.959Z,98238.10
2023-05-10T05:01:40.699Z,98241.15
2023-05-10T05:04:08.664Z,98237.71
2023-05-10T05:06:36.870Z,98239.09
2023-05-10T05:09:05.042Z,98239.27
2023-05-10T05:11:33.119Z,98237.52
2023-05-10T05:14:01.499Z,98234.88
2023-05-10T05:16:31.924Z,98233.42
2023-05-10T05:19:01.835Z,98233.18
2023-05-10T05:21:30.325Z,98230.17
2023-05-10T05:23:58.334Z,98231.11
2023-05-10T05:26:27.684Z,98229.48
2023-05-10T05:28:55.972Z,98229.22
2023-05-10T05:31:23.964Z,98228.42
2023-05-10T05:33:52.217Z,98230.95
2023-05-10T05:36:20.179Z,98230.17
2023-05-10T05:38:48.254Z,98226.79
2023-05-10T05:41:16.221Z,98227.01
2023-05-10T05:43:44.416Z,98228.80
2023-05-10T05:46:12.545Z,98227.15
2023-05-10T05:48:40.526Z,98224.49
2023-05-10T05:51:08.513Z,98226.23
2023-05-10T05:53:36.678Z,98228.36
2023-05-10T05:56:05.275Z,98227.75
2023-05-10T05:58:33.237Z,98225.39
2023-05-10T06:01:01.312Z,98223.99
2023-05-10T06:03:29.535Z,98222.09
2023-05-10T06:05:57.679Z,98219.33
2023-05-10T06:08:25.849Z,98217.95
2023-05-10T06:10:53.905Z,98218.45
2023-05-10T06:13:22.440Z,98215.71
2023-05-10T06:15:50.514Z,98217.62
2023-05-10T06:18:18.670Z,98216.21
2023-05-10T06:20:46.629Z,98213.24
2023-05-10T06:23:14.670Z,98210.66
2023-05-10T06:25:42.659Z,98208.40
2023-05-10T06:28:10.578Z,98210.12
2023-05-10T06:30:38.802Z,98206.15
2023-05-10T06:33:06.835Z,98210.13
2023-05-10T06:35:35.240Z,98207.50
2023-05-10T06:38:03.311Z,98207.77
2023-05-10T06:40:31.282Z,98205.97
2023-05-10T06:42:59.323Z,98204.93
2023-05-10T06:45:27.329Z,98204.75
2023-05-10T06:47:55.275Z,98206.14
2023-05-10T06:50:23.372Z,98208.73
2023-05-10T06:52:53.056Z,98204.05
2023-05-10T06:55:21.555Z,98202.82
2023-05-10T06:57:49.565Z,98201.08
2023-05-10T07:00:19.264Z,98201.93
2023-05-10T07:02:48.141Z,98197.45
2023-05-10T07:05:16.611Z,98194.93
2023-05-10T07:07:44.980Z,98191.73
2023-05-10T07:10:13.064Z,98189.85
2023-05-10T07:12:41.289Z,98184.17
2023-05-10T07:15:10.429Z,98182.14
2023-05-10T07:17:38.665Z,98184.70
2023-05-10T07:20:07.729Z,98186.90
2023-05-10T07:22:35.627Z,98184.98
2023-05-10T07:25:03.847Z,98184.14
2023-05-10T07:27:31.810Z,98180.85
2023-05-10T07:29:59.888Z,98181.57
2023-05-10T07:32:27.938Z,98181.85
2023-05-10T07:34:56.146Z,98181.74
2023-05-10T07:37:24.204Z,98178.28
2023-05-10T07:39:52.167Z,98180.76
2023-05-10T07:42:20.143Z,98174.68
2023-05-10T07:44:48.422Z,98178.66
2023-05-10T07:47:16.320Z,98174.54
2023-05-10T07:49:44.826Z,98177.11
2023-05-10T07:52:13.047Z,98175.88
2023-05-10T07:54:41.108Z,98174.77
2023-05-10T07:57:09.286Z,98172.90
2023-05-10T07:59:37.662Z,98172.45
2023-05-10T08:02:05.995Z,98169.73
2023-05-10T08:04:34.115Z,98174.20
2023-05-10T08:07:02.391Z,98172.79
2023-05-10T08:09:30.472Z,98171.88
2023-05-10T08:12:00.502Z,98170.63
2023-05-10T08:14:30.072Z,98164.05
2023-05-10T08:16:58.169Z,98169.26
2023-05-10T08:19:26.235Z,98168.33
2023-05-10T08:21:56.464Z,98160.31
2023-05-10T08:24:24.723Z,98159.79
2023-05-10T08:26:52.784Z,98163.77
2023-05-10T08:29:20.872Z,98163.81
2023-05-10T08:31:48.820Z,98163.77
2023-05-10T08:34:17.021Z,98167.65
2023-05-10T08:36:45.092Z,98166.06
2023-05-10T08:39:22.959Z,98167.98
2023-05-10T08:42:05.675Z,98170.83
2023-05-10T08:44:35.638Z,98167.76
2023-05-10T08:47:07.058Z,98161.60
2023-05-10T08:49:36.013Z,98155.63
2023-05-10T08:52:06.641Z,98156.52
2023-05-10T08:54:35.523Z,98158.74
2023-05-10T08:57:04.184Z,98148.41
2023-05-10T08:59:32.302Z,98146.03
2023-05-10T09:02:01.772Z,98147.84
2023-05-10T09:04:30.898Z,98149.56
2023-05-10T09:06:59.312Z,98146.15
2023-05-10T09:09:29.103Z,98146.23
2023-05-10T09:11:57.533Z,98146.98
2023-05-10T09:14:26.308Z,98148.55
2023-05-10T09:16:56.429Z,98142.31
2023-05-10T09:19:24.618Z,98136.67
2023-05-10T09:21:52.575Z,98140.59
2023-05-10T09:24:20.536Z,98143.65
2023-05-10T09:26:49.761Z,98137.65
2023-05-10T09:29:18.532Z,98139.19
2023-05-10T09:31:48.463Z,98135.48
2023-05-10T09:34:22.231Z,98133.67
2023-05-10T09:36:55.591Z,98129.16
2023-05-10T09:39:38.000Z,98125.77
2023-05-10T09:42:08.305Z,98126.08
2023-05-10T09:44:37.296Z,98123.55
2023-05-10T09:47:05.763Z,98125.26
2023-05-10T09:49:34.432Z,98117.71
2023-05-10T09:52:04.757Z,98111.30
2023-05-10T09:54:33.788Z,98099.19
2023-05-10T09:57:02.210Z,98099.42
2023-05-10T09:59:30.824Z,98100.10
2023-05-10T10:02:00.787Z,98100.20
2023-05-10T10:04:29.589Z,98101.04
2023-05-10T10:07:05.543Z,98105.17
2023-05-10T10:09:35.300Z,98104.48
2023-05-10T10:12:05.567Z,98101.90
2023-05-10T10:14:35.228Z,98090.50
2023-05-10T10:19:36.970Z,98093.99
2023-05-10T10:22:05.792Z,98088.08
2023-05-10T10:24:34.154Z,98088.06
2023-05-10T10:27:15.627Z,98089.23
2023-05-10T10:30:01.906Z,98089.29
2023-05-10T10:33:13.327Z,98086.87
2023-05-10T10:35:48.783Z,98086.48
2023-05-10T10:38:17.676Z,98085.81
2023-05-10T10:40:45.656Z,98085.94
2023-05-10T10:43:29.465Z,98086.69
2023-05-10T10:46:18.079Z,98084.86
2023-05-10T10:49:09.151Z,98081.94
2023-05-10T10:51:41.020Z,98080.42
2023-05-10T10:54:12.966Z,98082.86
2023-05-10T10:56:41.052Z,98079.69
2023-05-10T10:59:09.946Z,98075.11
2023-05-10T11:01:38.186Z,98076.73
2023-05-10T11:04:06.338Z,98070.95
2023-05-10T11:06:36.666Z,98069.23
2023-05-10T11:09:10.518Z,98067.67
2023-05-10T11:11:56.531Z,98071.05
2023-05-10T11:14:25.311Z,98064.36
2023-05-10T11:16:53.678Z,98067.19
2023-05-10T11:19:21.851Z,98069.48
2023-05-10T11:21:51.034Z,98069.70
2023-05-10T11:24:22.192Z,98069.20
2023-05-10T11:26:54.333Z,98069.49
2023-05-10T11:29:22.499Z,98061.92
2023-05-10T11:31:50.942Z,98057.33
2023-05-10T11:34:26.826Z,98051.37
2023-05-10T11:36:56.530Z,98049.66
2023-05-10T11:39:29.811Z,98048.23
2023-05-10T11:41:58.890Z,98047.42
2023-05-10T11:44:33.937Z,98046.56
2023-05-10T11:47:02.954Z,98043.73
2023-05-10T11:49:31.286Z,98041.79
2023-05-10T11:52:08.854Z,98038.63
2023-05-10T11:54:37.057Z,98037.90
2023-05-10T11:57:05.328Z,98041.33
2023-05-10T11:59:33.263Z,98043.04
2023-05-10T12:02:01.604Z,98041.98
2023-05-10T12:04:30.659Z,98040.49
2023-05-10T12:06:59.166Z,98039.31
2023-05-10T12:09:42.508Z,98033.41
2023-05-10T12:12:18.115Z,98034.00
2023-05-10T12:14:51.562Z,98033.88
2023-05-10T12:17:19.609Z,98033.01
2023-05-10T12:19:48.396Z,98028.08
2023-05-10T12:22:16.367Z,98019.48
2023-05-10T12:24:46.424Z,98016.73
2023-05-10T12:27:15.977Z,98019.27
2023-05-10T12:29:47.221Z,98016.50
2023-05-10T12:32:15.208Z,98012.17
2023-05-10T12:34:43.264Z,98007.95
2023-05-10T12:37:11.339Z,98010.38
2023-05-10T12:39:41.441Z,98003.81
2023-05-10T12:42:10.082Z,98003.13
2023-05-10T12:44:38.315Z,98000.08
2023-05-10T12:47:07.258Z,97999.73
2023-05-10T12:49:35.518Z,98000.54
2023-05-10T12:52:03.695Z,97997.77
2023-05-10T12:54:31.732Z,97994.46
2023-05-10T12:56:59.727Z,97992.44
2023-05-10T12:59:27.889Z,97987.77
2023-05-10T13:01:55.952Z,97987.49
2023-05-10T13:04:24.279Z,97982.63
2023-05-10T13:06:52.534Z,97978.32
2023-05-10T13:09:21.610Z,97977.23
2023-05-10T13:11:50.410Z,97977.20
2023-05-10T13:14:20.496Z,97971.37
2023-05-10T13:16:48.852Z,97970.52
2023-05-10T13:19:17.923Z,97970.05
2023-05-10T13:21:46.050Z,97966.02
2023-05-10T13:24:18.117Z,97968.02
2023-05-10T13:26:46.123Z,97966.41
2023-05-10T13:29:14.163Z,97961.02
2023-05-10T13:31:42.389Z,97963.46
2023-05-10T13:34:10.516Z,97964.44
2023-05-10T13:36:38.582Z,97961.58
2023-05-10T13:39:06.757Z,97959.52
2023-05-10T13:41:35.238Z,97958.27
2023-05-10T13:44:03.421Z,97959.27
2023-05-10T13:46:32.150Z,97963.43
2023-05-10T13:49:00.213Z,97964.27
2023-05-10T13:51:28.246Z,97962.69
2023-05-10T13:53:56.316Z,97963.91
2023-05-10T13:56:24.382Z,97962.35
2023-05-10T13:58:52.501Z,97963.56
2023-05-10T14:01:20.871Z,97962.27
2023-05-10T14:03:49.480Z,97958.52
2023-05-10T14:06:17.600Z,97956.30
2023-05-10T14:08:45.858Z,97953.94
2023-05-10T14:11:14.063Z,97948.20
2023-05-10T14:13:42.330Z,97946.15
2023-05-10T14:16:10.411Z,97946.63
2023-05-10T14:18:39.033Z,97947.80
2023-05-10T14:21:07.467Z,97946.77
2023-05-10T14:23:35.432Z,97949.28
2023-05-10T14:26:03.976Z,97948.77
2023-05-10T14:28:32.202Z,97950.23
2023-05-10T14:31:00.435Z,97947.41
2023-05-10T14:33:28.479Z,97950.13
2023-05-10T14:35:58.454Z,97947.20
2023-05-10T14:38:26.339Z,97947.42
2023-05-10T14:40:54.246Z,97945.36
2023-05-10T14:43:22.568Z,97947.73
2023-05-10T14:45:50.861Z,97947.06
2023-05-10T14:48:19.009Z,97942.23
2023-05-10T14:50:47.305Z,97943.90
2023-05-10T14:53:15.362Z,97942.48
2023-05-10T14:55:43.643Z,97942.88
2023-05-10T14:58:12.023Z,97942.73
2023-05-10T15:00:40.205Z,97938.87
2023-05-10T15:03:09.048Z,97938.73
2023-05-10T15:05:38.757Z,97939.20
2023-05-10T15:08:07.372Z,97936.59
2023-05-10T15:10:36.228Z,97936.98
2023-05-10T15:13:05.155Z,97933.40
2023-05-10T15:15:33.378Z,97934.64
2023-05-10T15:18:01.947Z,97939.36
2023-05-10T15:20:30.298Z,97942.34
2023-05-10T15:22:58.578Z,97945.24
2023-05-10T15:25:27.264Z,97945.48
2023-05-10T15:27:55.704Z,97944.48
2023-05-10T15:30:23.906Z,97943.67
2023-05-10T15:32:51.975Z,97941.05
2023-05-10T15:35:20.271Z,97944.52
2023-05-10T15:37:49.982Z,97942.96
2023-05-10T15:40:18.267Z,97944.42
2023-05-10T15:42:46.321Z,97939.52
2023-05-10T15:45:16.508Z,97938.37
2023-05-10T15:47:45.846Z,97939.65
2023-05-10T15:50:15.655Z,97940.77
2023-05-10T15:52:43.559Z,97943.29
2023-05-10T15:55:15.090Z,97942.83
2023-05-10T15:57:44.893Z,97949.40
2023-05-10T16:00:13.783Z,97946.19
2023-05-10T16:02:42.038Z,97947.28
2023-05-10T16:05:10.429Z,97948.85
2023-05-10T16:07:38.529Z,97947.77
2023-05-10T16:10:08.585Z,97946.94
2023-05-10T16:12:37.114Z,97941.77
2023-05-10T16:15:06.212Z,97940.83
2023-05-10T16:17:34.432Z,97937.60
2023-05-10T16:20:02.847Z,97938.13
2023-05-10T16:22:31.027Z,97941.00
2023-05-10T16:24:59.723Z,97942.11
2023-05-10T16:27:30.284Z,97944.98
2023-05-10T16:29:58.640Z,97944.48
2023-05-10T16:32:26.737Z,97946.43
2023-05-10T16:34:55.022Z,97950.30
2023-05-10T16:37:23.151Z,97952.02
2023-05-10T16:39:51.227Z,97951.96
2023-05-10T16:42:19.188Z,97953.30
2023-05-10T16:44:47.646Z,97953.63
2023-05-10T16:47:16.358Z,97954.17
2023-05-10T16:49:44.543Z,97959.55
2023-05-10T16:52:12.636Z,97962.45
2023-05-10T16:54:40.675Z,97965.11
2023-05-10T16:57:08.682Z,97962.95
2023-05-10T16:59:36.585Z,97963.88
2023-05-10T17:02:04.834Z,97964.91
2023-05-10T17:04:32.972Z,97968.20
2023-05-10T17:07:01.123Z,97964.79
2023-05-10T17:09:29.112Z,97967.02
2023-05-10T17:11:57.526Z,97971.72
2023-05-10T17:14:25.585Z,97971.33
2023-05-10T17:16:55.219Z,97971.35
2023-05-10T17:19:25.557Z,97971.60
2023-05-10T17:21:54.462Z,97975.04
2023-05-10T17:24:22.476Z,97974.37
2023-05-10T17:26:50.796Z,97974.66
2023-05-10T17:29:19.007Z,97974.27
2023-05-10T17:31:47.763Z,97979.00
2023-05-10T17:34:15.768Z,97983.27
2023-05-10T17:36:43.942Z,97988.12
2023-05-10T17:39:12.018Z,97988.61
2023-05-10T17:41:41.060Z,97991.54
2023-05-10T17:44:09.088Z,97993.67
2023-05-10T17:46:38.071Z,97996.19
2023-05-10T17:49:06.162Z,98001.59
2023-05-10T17:51:34.523Z,98003.73
2023-05-10T17:54:02.710Z,98009.04
2023-05-10T17:56:30.776Z,98011.09
2023-05-10T17:58:59.053Z,98013.52
2023-05-10T18:01:27.040Z,98018.35
2023-05-10T18:03:55.187Z,98018.54
2023-05-10T18:06:23.763Z,98020.13
2023-05-10T18:08:51.847Z,98024.19
2023-05-10T18:11:20.115Z,98026.19
2023-05-10T18:13:48.078Z,98031.64
2023-05-10T18:16:16.406Z,98031.45
2023-05-10T18:18:44.655Z,98035.19
2023-05-10T18:21:12.690Z,98039.08
2023-05-10T18:23:41.913Z,98041.09
2023-05-10T18:26:09.990Z,98051.33
2023-05-10T18:28:38.251Z,98051.04
2023-05-10T18:31:06.465Z,98055.80
2023-05-10T18:33:34.502Z,98057.07
2023-05-10T18:36:02.688Z,98060.46
2023-05-10T18:38:31.268Z,98063.48
2023-05-10T18:40:59.357Z,98065.55
2023-05-10T18:43:27.409Z,98065.34
2023-05-10T18:45:55.512Z,98068.63
2023-05-10T18:48:23.589Z,98075.83
2023-05-10T18:50:51.721Z,98077.01
2023-05-10T18:53:19.800Z,98079.98
2023-05-10T18:55:57.171Z,98080.48
2023-05-10T18:58:28.336Z,98081.55
2023-05-10T19:00:56.599Z,98084.34
2023-05-10T19:03:24.644Z,98084.70
2023-05-10T19:05:52.612Z,98091.48
2023-05-10T19:08:20.817Z,98088.71
2023-05-10T19:10:49.107Z,98091.97
2023-05-10T19:13:19.214Z,98092.03
2023-05-10T19:15:48.178Z,98094.19
2023-05-10T19:18:16.625Z,98092.73
2023-05-10T19:20:45.687Z,98094.61
2023-05-10T19:23:13.761Z,98094.84
2023-05-10T19:25:42.450Z,98095.48
2023-05-10T19:28:11.765Z,98099.69
2023-05-10T19:30:39.679Z,98101.02
2023-05-10T19:33:09.400Z,98101.05
2023-05-10T19:35:38.893Z,98103.48
2023-05-10T19:38:07.099Z,98105.17
2023-05-10T19:40:35.280Z,98105.64
2023-05-10T19:43:04.373Z,98104.73
2023-05-10T19:45:32.448Z,98106.73
2023-05-10T19:48:01.502Z,98106.46
2023-05-10T19:50:29.825Z,98109.15
2023-05-10T19:52:58.721Z,98115.85
2023-05-10T19:55:32.020Z,98120.48
2023-05-10T19:58:02.939Z,98116.89
2023-05-10T20:00:31.841Z,98117.82
2023-05-10T20:02:59.830Z,98119.65
2023-05-10T20:05:28.905Z,98120.96
2023-05-10T20:07:56.967Z,98121.64
2023-05-10T20:10:27.163Z,98124.08
2023-05-10T20:12:55.348Z,98127.00
2023-05-10T20:15:23.971Z,98128.98
2023-05-10T20:17:53.263Z,98129.00
2023-05-10T20:20:21.947Z,98128.67
2023-05-10T20:22:50.492Z,98128.98
2023-05-10T20:25:19.335Z,98131.20
2023-05-10T20:27:47.383Z,98131.94
2023-05-10T20:30:15.926Z,98136.01
2023-05-10T20:32:44.473Z,98140.39
2023-05-10T20:35:12.497Z,98140.66
2023-05-10T20:37:40.690Z,98139.58
2023-05-10T20:40:09.885Z,98140.10
2023-05-10T20:42:38.073Z,98142.65
2023-05-10T20:45:06.719Z,98139.33
2023-05-10T20:47:36.347Z,98137.77
2023-05-10T20:50:05.146Z,98141.30
2023-05-10T20:52:33.116Z,98142.92
2023-05-10T20:55:01.181Z,98140.73
2023-05-10T20:57:29.587Z,98142.52
2023-05-10T20:59:57.864Z,98142.23
2023-05-10T21:02:26.277Z,98143.02
2023-05-10T21:04:57.042Z,98142.52
2023-05-10T21:07:25.903Z,98144.03
2023-05-10T21:09:53.796Z,98143.72
2023-05-10T21:12:21.998Z,98143.11
2023-05-10T21:14:50.177Z,98141.25
2023-05-10T21:17:19.984Z,98142.70
2023-05-10T21:19:48.421Z,98142.23
2023-05-10T21:22:16.944Z,98143.52
2023-05-10T21:24:45.223Z,98143.28
2023-05-10T21:27:13.500Z,98140.75
2023-05-10T21:29:41.482Z,98143.80
2023-05-10T21:32:09.932Z,98142.38
2023-05-10T21:34:38.017Z,98144.52
2023-05-10T21:37:06.065Z,98142.86
2023-05-10T21:39:34.061Z,98144.14
2023-05-10T21:42:03.621Z,98144.89
2023-05-10T21:44:32.235Z,98144.92
2023-05-10T21:47:00.197Z,98148.05
2023-05-10T21:49:28.137Z,98145.72
2023-05-10T21:51:56.069Z,98145.55
2023-05-10T21:54:24.129Z,98147.98
2023-05-10T21:56:52.536Z,98153.16
2023-05-10T21:59:21.803Z,98150.53
2023-05-10T22:01:49.905Z,98151.90
2023-05-10T22:04:17.978Z,98153.47
2023-05-10T22:06:46.031Z,98155.55
2023-05-10T22:09:14.297Z,98158.30
2023-05-10T22:11:42.372Z,98150.85
2023-05-10T22:14:10.450Z,98152.73
2023-05-10T22:16:38.443Z,98151.84
2023-05-10T22:19:06.623Z,98150.33
2023-05-10T22:21:34.864Z,98151.95
2023-05-10T22:24:02.827Z,98150.59
2023-05-10T22:26:30.703Z,98147.86
2023-05-10T22:28:58.873Z,98151.48
2023-05-10T22:31:27.124Z,98151.52
2023-05-10T22:33:55.534Z,98152.95
2023-05-10T22:36:23.461Z,98154.57
2023-05-10T22:38:51.515Z,98154.48
2023-05-10T22:41:19.541Z,98156.33
2023-05-10T22:43:47.520Z,98155.93
2023-05-10T22:46:15.722Z,98157.59
2023-05-10T22:48:43.955Z,98160.46
2023-05-10T22:51:12.144Z,98157.17
2023-05-10T22:53:40.120Z,98151.99
2023-05-10T22:56:08.086Z,98151.52
2023-05-10T22:58:36.072Z,98152.78
2023-05-10T23:01:04.424Z,98149.02
2023-05-10T23:03:32.486Z,98151.80
2023-05-10T23:06:00.673Z,98152.50
2023-05-10T23:08:28.652Z,98151.42
2023-05-10T23:10:57.026Z,98148.66
2023-05-10T23:13:25.004Z,98144.70
2023-05-10T23:15:53.101Z,98146.02
2023-05-10T23:18:21.185Z,98145.77
2023-05-10T23:20:49.411Z,98144.98
2023-05-10T23:23:17.375Z,98146.05
2023-05-10T23:25:45.240Z,98147.14
2023-05-10T23:28:13.441Z,98147.66
2023-05-10T23:30:41.590Z,98145.60
2023-05-10T23:33:09.670Z,98148.02
2023-05-10T23:35:37.834Z,98147.36
2023-05-10T23:38:06.012Z,98152.77
2023-05-10T23:40:35.741Z,98153.80
2023-05-10T23:43:03.729Z,98151.89
2023-05-10T23:45:31.784Z,98149.64
2023-05-10T23:47:59.967Z,98148.89
2023-05-10T23:50:28.003Z,98151.98
2023-05-10T23:52:55.885Z,98151.83
2023-05-10T23:55:23.816Z,98153.03
2023-05-10T23:57:51.816Z,98157.16
